Time;durP1;ratioP1;P1;durP2;ratioP2;P2;SDS_P1;SDS_P2;PMS_P1;PMS_P2;Temp;Humidity;BMP_temperature;BMP_pressure;BME280_temperature;BME280_humidity;BME280_pressure;Samples;Min_cycle;Max_cycle;Signal;HPM_P1;HPM_P2
2023/12/22 06:02:35;;;;;;;11.53;3.73;;;;;;;;;;5710530;23;20514;-70
2023/12/22 06:05:02;;;;;;;13.30;4.87;;;;;;;;;;4980096;28;20510;-70
2023/12/22 06:07:27;;;;;;;8.00;3.20;;;;;;;;;;4971323;28;20417;-72
2023/12/22 06:09:53;;;;;;;10.70;2.60;;;;;;;;;;4960872;28;20448;-72
2023/12/22 06:12:19;;;;;;;12.70;3.10;;;;;;;;;;4959163;28;20440;-70
2023/12/22 06:14:45;;;;;;;7.27;2.23;;;;;;;;;;4959020;28;20495;-72
2023/12/22 06:17:11;;;;;;;9.13;2.90;;;;;;;;;;4958500;28;20787;-73
2023/12/22 06:19:37;;;;;;;14.50;2.70;;;;;;;;;;4959062;28;20432;-72
2023/12/22 06:22:03;;;;;;;19.77;2.80;;;;;;;;;;4957864;28;20996;-72
2023/12/22 06:24:29;;;;;;;11.13;2.83;;;;;;;;;;4958219;28;20464;-72
2023/12/22 06:26:55;;;;;;;11.10;2.73;;;;;;;;;;4960130;28;20424;-72
2023/12/22 06:29:21;;;;;;;17.80;3.57;;;;;;;;;;4958510;28;20417;-73
2023/12/22 06:31:50;;;;;;;13.30;2.53;;;;;;;;;;4957909;28;20435;-73
2023/12/22 06:34:16;;;;;;;12.83;3.23;;;;;;;;;;4956669;28;20949;-72
2023/12/22 06:36:42;;;;;;;8.03;3.33;;;;;;;;;;4957940;28;20429;-73
2023/12/22 06:39:08;;;;;;;7.90;2.60;;;;;;;;;;4964863;28;20795;-73
2023/12/22 06:41:34;;;;;;;12.53;3.87;;;;;;;;;;4977286;28;20451;-74
2023/12/22 06:44:00;;;;;;;7.40;2.70;;;;;;;;;;4977686;28;20467;-72
2023/12/22 06:46:27;;;;;;;16.37;3.30;;;;;;;;;;4975508;28;20420;-73
2023/12/22 06:48:53;;;;;;;8.43;4.20;;;;;;;;;;4976096;28;20440;-73
2023/12/22 06:51:23;;;;;;;14.50;3.50;;;;;;;;;;4974185;28;20443;-72
2023/12/22 06:53:49;;;;;;;7.63;2.70;;;;;;;;;;4981555;28;20415;-72
2023/12/22 06:56:19;;;;;;;11.17;2.60;;;;;;;;;;4978501;28;20455;-71
2023/12/22 06:58:48;;;;;;;13.23;3.00;;;;;;;;;;4972092;28;20412;-71
2023/12/22 07:01:20;;;;;;;6.03;3.20;;;;;;;;;;4971848;28;20799;-71
2023/12/22 07:03:47;;;;;;;9.20;2.73;;;;;;;;;;4970953;28;20482;-72
2023/12/22 07:06:13;;;;;;;14.00;2.70;;;;;;;;;;4969336;28;20480;-72
2023/12/22 07:08:39;;;;;;;11.80;1.90;;;;;;;;;;4963388;28;20884;-74
2023/12/22 07:11:05;;;;;;;8.90;2.60;;;;;;;;;;4956307;28;20884;-73
2023/12/22 07:13:31;;;;;;;6.73;2.70;;;;;;;;;;4956399;28;20417;-72
2023/12/22 07:15:57;;;;;;;15.27;2.37;;;;;;;;;;4955862;28;20417;-73
2023/12/22 07:18:25;;;;;;;6.93;2.43;;;;;;;;;;4955413;28;20445;-73
2023/12/22 07:20:51;;;;;;;8.23;2.30;;;;;;;;;;4955301;28;20437;-71
2023/12/22 07:23:16;;;;;;;13.90;2.30;;;;;;;;;;4959925;28;20470;-72
2023/12/22 07:25:43;;;;;;;14.97;2.50;;;;;;;;;;4975825;28;20506;-71
2023/12/22 07:28:09;;;;;;;8.30;2.23;;;;;;;;;;4975557;28;20419;-72
2023/12/22 07:30:35;;;;;;;10.83;2.57;;;;;;;;;;4974627;28;20431;-75
2023/12/22 07:33:01;;;;;;;15.10;3.40;;;;;;;;;;4974445;28;20490;-71
2023/12/22 07:35:27;;;;;;;14.07;3.27;;;;;;;;;;4974661;28;20416;-73
2023/12/22 07:37:53;;;;;;;11.00;2.63;;;;;;;;;;4974276;28;20427;-71
2023/12/22 07:40:19;;;;;;;13.77;3.53;;;;;;;;;;4974613;28;20404;-73
2023/12/22 07:42:46;;;;;;;11.87;3.00;;;;;;;;;;4975209;28;20408;-72
2023/12/22 07:45:12;;;;;;;10.27;2.07;;;;;;;;;;4975012;28;20422;-73
2023/12/22 07:47:38;;;;;;;7.83;2.27;;;;;;;;;;4974217;28;20408;-72
2023/12/22 07:50:08;;;;;;;6.70;2.13;;;;;;;;;;4962035;28;20436;-73
2023/12/22 07:52:34;;;;;;;5.83;1.93;;;;;;;;;;4955939;28;20500;-73
2023/12/22 07:54:59;;;;;;;10.53;3.10;;;;;;;;;;4955925;28;20467;-72
2023/12/22 07:57:25;;;;;;;10.47;2.47;;;;;;;;;;4954439;28;20432;-73
2023/12/22 07:59:52;;;;;;;6.90;1.97;;;;;;;;;;4955973;28;20456;-74
2023/12/22 08:02:18;;;;;;;8.33;2.00;;;;;;;;;;4955767;28;20452;-73
2023/12/22 08:04:44;;;;;;;8.37;2.20;;;;;;;;;;4956454;28;20464;-74
2023/12/22 08:07:10;;;;;;;9.93;2.37;;;;;;;;;;4955480;28;20411;-73
2023/12/22 08:09:36;;;;;;;8.00;2.40;;;;;;;;;;4969059;28;20775;-73
2023/12/22 08:12:02;;;;;;;9.37;2.20;;;;;;;;;;4975339;28;20428;-75
2023/12/22 08:14:28;;;;;;;7.87;2.33;;;;;;;;;;4974154;28;20437;-73
2023/12/22 08:16:54;;;;;;;10.70;2.47;;;;;;;;;;4960837;28;20524;-73
2023/12/22 08:19:21;;;;;;;7.23;2.33;;;;;;;;;;4956446;28;20962;-73
2023/12/22 08:21:47;;;;;;;5.87;2.90;;;;;;;;;;4958503;28;20549;-75
2023/12/22 08:24:13;;;;;;;7.87;3.03;;;;;;;;;;4959330;28;20511;-74
2023/12/22 08:26:39;;;;;;;8.37;1.97;;;;;;;;;;4951337;28;20416;-77
2023/12/22 08:29:05;;;;;;;7.80;3.40;;;;;;;;;;4951832;29;20909;-74
2023/12/22 08:31:30;;;;;;;19.80;6.57;;;;;;;;;;4953806;28;20472;-73
2023/12/22 08:33:56;;;;;;;8.33;2.67;;;;;;;;;;4955336;28;20400;-75
2023/12/22 08:36:22;;;;;;;8.47;3.00;;;;;;;;;;4956170;28;20443;-73
2023/12/22 08:38:48;;;;;;;10.70;2.73;;;;;;;;;;4953359;28;20456;-74
2023/12/22 08:41:14;;;;;;;14.17;3.53;;;;;;;;;;4952987;28;20810;-75
2023/12/22 08:43:40;;;;;;;13.30;4.27;;;;;;;;;;4954178;28;20464;-76
2023/12/22 08:46:06;;;;;;;23.57;3.33;;;;;;;;;;4954097;28;20423;-74
2023/12/22 08:48:32;;;;;;;14.60;3.27;;;;;;;;;;4954280;28;20409;-75
2023/12/22 08:50:59;;;;;;;14.83;3.70;;;;;;;;;;4952835;28;20432;-74
2023/12/22 08:53:25;;;;;;;24.87;4.50;;;;;;;;;;4954529;28;20417;-73
2023/12/22 08:55:51;;;;;;;22.27;3.03;;;;;;;;;;4954939;28;20928;-74
2023/12/22 08:58:18;;;;;;;11.60;3.30;;;;;;;;;;4954591;28;20425;-76
2023/12/22 09:00:44;;;;;;;14.87;3.13;;;;;;;;;;4955354;28;20465;-74
2023/12/22 09:03:10;;;;;;;20.03;3.80;;;;;;;;;;4954863;28;20472;-74
2023/12/22 09:05:36;;;;;;;10.03;3.30;;;;;;;;;;4957893;28;20409;-75
2023/12/22 09:08:02;;;;;;;23.53;3.97;;;;;;;;;;4969604;28;20430;-76
2023/12/22 09:10:27;;;;;;;23.13;5.07;;;;;;;;;;4969557;28;20475;-74
2023/12/22 09:12:53;;;;;;;17.13;4.13;;;;;;;;;;4966882;28;20416;-75
2023/12/22 09:15:19;;;;;;;16.87;4.20;;;;;;;;;;4970313;28;20475;-74
2023/12/22 09:17:45;;;;;;;12.20;3.03;;;;;;;;;;4958602;28;20757;-74
2023/12/22 09:20:12;;;;;;;20.03;4.27;;;;;;;;;;4956792;28;20796;-74
2023/12/22 09:22:38;;;;;;;11.73;3.73;;;;;;;;;;4957814;28;20900;-74
2023/12/22 09:25:04;;;;;;;12.33;3.20;;;;;;;;;;4967107;28;20498;-73
2023/12/22 09:27:30;;;;;;;10.60;3.10;;;;;;;;;;4978345;28;20408;-74
2023/12/22 09:29:57;;;;;;;13.80;3.57;;;;;;;;;;4978645;28;20407;-74
2023/12/22 09:32:23;;;;;;;24.27;5.27;;;;;;;;;;4977122;28;20470;-75
2023/12/22 09:34:49;;;;;;;19.60;4.23;;;;;;;;;;4960850;28;20788;-74
2023/12/22 09:37:15;;;;;;;20.57;4.27;;;;;;;;;;4961397;28;20471;-72
2023/12/22 09:39:41;;;;;;;12.67;4.00;;;;;;;;;;4958191;28;20420;-75
2023/12/22 09:42:07;;;;;;;22.03;5.23;;;;;;;;;;4958007;28;20436;-74
2023/12/22 09:44:33;;;;;;;15.00;4.53;;;;;;;;;;4976275;28;20985;-76
2023/12/22 09:47:01;;;;;;;16.37;4.27;;;;;;;;;;4965616;28;20427;-72
2023/12/22 09:49:27;;;;;;;14.13;3.90;;;;;;;;;;4959541;28;20496;-74
2023/12/22 09:51:54;;;;;;;13.60;3.43;;;;;;;;;;4957052;28;20437;-73
2023/12/22 09:54:20;;;;;;;12.73;3.60;;;;;;;;;;4957574;28;20417;-75
2023/12/22 09:56:47;;;;;;;18.03;3.70;;;;;;;;;;4957076;28;20413;-74
2023/12/22 09:59:13;;;;;;;10.60;4.97;;;;;;;;;;4955613;28;20471;-73
2023/12/22 10:01:44;;;;;;;19.63;4.53;;;;;;;;;;4956863;28;20432;-74
2023/12/22 10:04:10;;;;;;;18.43;3.63;;;;;;;;;;4957028;28;20511;-75
2023/12/22 10:06:37;;;;;;;12.87;3.70;;;;;;;;;;4957013;28;20894;-73
2023/12/22 10:09:05;;;;;;;15.23;3.57;;;;;;;;;;4957320;28;20452;-73
2023/12/22 10:11:32;;;;;;;20.30;3.90;;;;;;;;;;4955525;28;20583;-74
2023/12/22 10:13:59;;;;;;;14.43;3.30;;;;;;;;;;4956939;28;20416;-73
2023/12/22 10:16:27;;;;;;;21.67;4.20;;;;;;;;;;4954751;28;20421;-74
2023/12/22 10:18:53;;;;;;;14.27;4.20;;;;;;;;;;4956798;28;20425;-74
2023/12/22 10:21:20;;;;;;;14.07;4.10;;;;;;;;;;4955462;28;20447;-74
2023/12/22 10:23:46;;;;;;;18.40;4.60;;;;;;;;;;4955609;28;20468;-72
2023/12/22 10:26:12;;;;;;;12.53;4.73;;;;;;;;;;4957845;28;20813;-71
2023/12/22 10:28:38;;;;;;;14.90;4.00;;;;;;;;;;4961283;28;20479;-72
2023/12/22 10:31:07;;;;;;;15.87;4.10;;;;;;;;;;4968933;28;20954;-72
2023/12/22 10:33:33;;;;;;;19.47;4.07;;;;;;;;;;4960764;28;20427;-71
2023/12/22 10:36:00;;;;;;;13.33;4.13;;;;;;;;;;4957518;28;20417;-71
2023/12/22 10:38:26;;;;;;;18.00;4.07;;;;;;;;;;4962153;28;20431;-72
2023/12/22 10:40:53;;;;;;;16.93;3.87;;;;;;;;;;4962543;28;20437;-71
2023/12/22 10:43:18;;;;;;;23.33;4.40;;;;;;;;;;4956195;28;20460;-73
2023/12/22 10:45:45;;;;;;;14.37;4.23;;;;;;;;;;4955254;28;20409;-72
2023/12/22 10:48:11;;;;;;;12.17;3.20;;;;;;;;;;4956352;28;20413;-71
2023/12/22 10:50:39;;;;;;;15.30;4.10;;;;;;;;;;4956138;28;20816;-72
2023/12/22 10:53:06;;;;;;;17.70;3.63;;;;;;;;;;4955067;28;20507;-72
2023/12/22 10:55:35;;;;;;;9.00;3.00;;;;;;;;;;4961004;28;20495;-72
2023/12/22 10:58:03;;;;;;;14.80;4.20;;;;;;;;;;4975401;28;20768;-73
2023/12/22 11:00:29;;;;;;;11.40;3.00;;;;;;;;;;4973909;28;20881;-71
2023/12/22 11:02:59;;;;;;;14.00;3.43;;;;;;;;;;4975181;28;20522;-73
2023/12/22 11:05:26;;;;;;;15.63;3.30;;;;;;;;;;4974682;28;20458;-71
2023/12/22 11:07:55;;;;;;;12.87;2.90;;;;;;;;;;4975322;28;20416;-73
2023/12/22 11:10:21;;;;;;;7.73;2.10;;;;;;;;;;4975481;28;20891;-71
2023/12/22 11:12:48;;;;;;;10.33;2.40;;;;;;;;;;4978399;28;20482;-72
2023/12/22 11:15:14;;;;;;;5.70;2.10;;;;;;;;;;4975178;28;20523;-72
2023/12/22 11:17:42;;;;;;;5.73;1.87;;;;;;;;;;4973889;28;20416;-71
2023/12/22 11:20:12;;;;;;;8.10;2.37;;;;;;;;;;4975001;28;20502;-72
2023/12/22 11:22:39;;;;;;;8.70;3.00;;;;;;;;;;4976008;28;20447;-72
2023/12/22 11:25:05;;;;;;;7.10;2.27;;;;;;;;;;4958120;28;20464;-73
2023/12/22 11:27:33;;;;;;;7.03;1.90;;;;;;;;;;4955565;28;20417;-72
2023/12/22 11:30:01;;;;;;;6.40;2.07;;;;;;;;;;4955928;28;20409;-72
2023/12/22 11:32:27;;;;;;;11.33;3.73;;;;;;;;;;4955732;28;20436;-73
2023/12/22 11:34:54;;;;;;;6.77;1.70;;;;;;;;;;4956126;28;20412;-73
2023/12/22 11:37:20;;;;;;;5.73;1.80;;;;;;;;;;4959582;28;20421;-72
2023/12/22 11:39:47;;;;;;;2.97;1.80;;;;;;;;;;4956138;28;20427;-72
2023/12/22 11:42:21;;;;;;;9.03;2.10;;;;;;;;;;4967955;28;20444;-73
2023/12/22 11:44:47;;;;;;;5.90;1.70;;;;;;;;;;4974991;28;20872;-72
2023/12/22 11:47:14;;;;;;;5.80;2.00;;;;;;;;;;4975028;28;20459;-72
2023/12/22 11:49:40;;;;;;;3.60;1.70;;;;;;;;;;4974497;28;20419;-72
2023/12/22 11:52:13;;;;;;;7.87;2.50;;;;;;;;;;4974369;28;20436;-74
2023/12/22 11:54:48;;;;;;;6.27;2.00;;;;;;;;;;4975252;28;20428;-73
2023/12/22 11:57:32;;;;;;;6.10;1.70;;;;;;;;;;4975124;28;20419;-73
2023/12/22 12:00:03;;;;;;;6.70;1.73;;;;;;;;;;4977788;28;20493;-73
2023/12/22 12:02:31;;;;;;;2.30;1.70;;;;;;;;;;4976043;28;20458;-73
2023/12/22 12:05:02;;;;;;;3.63;1.73;;;;;;;;;;4975916;28;20522;-73
2023/12/22 12:07:40;;;;;;;2.87;1.37;;;;;;;;;;4974424;28;20423;-74
2023/12/22 12:10:09;;;;;;;7.07;2.17;;;;;;;;;;4974262;28;20427;-72
2023/12/22 12:12:36;;;;;;;7.13;2.03;;;;;;;;;;4974955;28;20520;-73
2023/12/22 12:15:07;;;;;;;7.50;1.60;;;;;;;;;;4975062;28;20422;-74
2023/12/22 12:17:33;;;;;;;2.83;1.40;;;;;;;;;;5010544;23;20486;-75
2023/12/22 12:19:59;;;;;;;2.10;1.33;;;;;;;;;;5012960;28;20411;-75
2023/12/22 12:22:26;;;;;;;1.80;1.30;;;;;;;;;;5012546;28;20472;-75
2023/12/22 12:24:52;;;;;;;2.27;1.60;;;;;;;;;;5012820;28;20441;-75
2023/12/22 12:27:19;;;;;;;1.40;1.13;;;;;;;;;;5005747;28;20950;-75
2023/12/22 12:29:45;;;;;;;2.10;1.43;;;;;;;;;;4992861;28;20407;-75
2023/12/22 12:32:14;;;;;;;6.40;1.40;;;;;;;;;;4992739;28;20979;-75
2023/12/22 12:34:40;;;;;;;4.53;2.53;;;;;;;;;;4993212;28;20873;-75
2023/12/22 12:37:06;;;;;;;2.73;1.63;;;;;;;;;;4993076;28;20439;-75
2023/12/22 12:39:34;;;;;;;1.40;1.20;;;;;;;;;;4992105;28;20781;-75
2023/12/22 12:42:04;;;;;;;5.40;2.27;;;;;;;;;;4989016;28;20454;-75
2023/12/22 12:44:33;;;;;;;2.53;1.50;;;;;;;;;;4973015;28;20902;-76
2023/12/22 12:47:00;;;;;;;5.80;1.37;;;;;;;;;;4973022;28;20466;-76
2023/12/22 12:49:27;;;;;;;3.23;1.50;;;;;;;;;;4973055;28;20408;-75
2023/12/22 12:51:53;;;;;;;4.10;1.40;;;;;;;;;;4973244;28;20495;-75
2023/12/22 12:54:20;;;;;;;4.27;1.90;;;;;;;;;;4992617;28;20450;-76
2023/12/22 12:56:46;;;;;;;2.40;1.13;;;;;;;;;;4992854;28;20422;-76
2023/12/22 12:59:16;;;;;;;2.43;1.27;;;;;;;;;;4993112;28;20418;-76
2023/12/22 13:01:43;;;;;;;1.53;1.30;;;;;;;;;;4993015;28;20973;-76
2023/12/22 13:04:09;;;;;;;6.60;3.27;;;;;;;;;;4991447;28;20461;-76
2023/12/22 13:06:36;;;;;;;1.23;1.00;;;;;;;;;;4971844;28;20415;-76
2023/12/22 13:09:02;;;;;;;1.37;1.23;;;;;;;;;;4973277;28;20798;-76
2023/12/22 13:11:30;;;;;;;2.70;2.47;;;;;;;;;;4973146;28;20415;-76
2023/12/22 13:13:56;;;;;;;1.93;1.87;;;;;;;;;;4973060;28;20408;-76
2023/12/22 13:16:26;;;;;;;5.03;1.63;;;;;;;;;;4974486;28;20884;-76
2023/12/22 13:18:52;;;;;;;3.00;1.67;;;;;;;;;;4990994;28;20942;-76
2023/12/22 13:21:18;;;;;;;1.27;1.20;;;;;;;;;;4992156;28;20763;-76
2023/12/22 13:23:44;;;;;;;1.80;1.70;;;;;;;;;;4992198;28;20482;-76
2023/12/22 13:26:20;;;;;;;1.57;0.97;;;;;;;;;;4991945;28;20414;-78
2023/12/22 13:28:45;;;;;;;0.87;0.80;;;;;;;;;;4989130;28;20582;-76
2023/12/22 13:31:13;;;;;;;1.27;0.90;;;;;;;;;;4976286;28;20436;-76
2023/12/22 13:33:40;;;;;;;0.80;0.70;;;;;;;;;;4980354;28;20443;-76
2023/12/22 13:36:06;;;;;;;1.47;1.00;;;;;;;;;;4977311;28;20495;-76
2023/12/22 13:38:33;;;;;;;0.90;0.80;;;;;;;;;;4977522;28;20424;-76
2023/12/22 13:41:01;;;;;;;2.50;0.90;;;;;;;;;;4980823;28;20423;-76
2023/12/22 13:43:30;;;;;;;0.83;0.73;;;;;;;;;;4994612;28;20454;-74
2023/12/22 13:45:56;;;;;;;1.53;1.20;;;;;;;;;;4992277;28;20465;-74
2023/12/22 13:48:23;;;;;;;0.90;0.80;;;;;;;;;;4991985;28;20797;-73
2023/12/22 13:50:58;;;;;;;0.93;0.70;;;;;;;;;;4993935;28;20414;-75
2023/12/22 13:53:24;;;;;;;1.60;0.70;;;;;;;;;;4984759;28;20459;-74
2023/12/22 13:55:57;;;;;;;0.87;0.80;;;;;;;;;;4976002;28;20419;-75
2023/12/22 13:58:23;;;;;;;0.87;0.77;;;;;;;;;;4976049;28;20436;-74
2023/12/22 14:00:50;;;;;;;0.97;0.70;;;;;;;;;;4975743;28;20466;-75
2023/12/22 14:03:16;;;;;;;1.53;0.83;;;;;;;;;;4984115;28;20418;-74
2023/12/22 14:05:42;;;;;;;0.90;0.77;;;;;;;;;;4995864;28;20418;-74
2023/12/22 14:08:08;;;;;;;0.80;0.70;;;;;;;;;;4995395;28;20430;-75
2023/12/22 14:10:34;;;;;;;3.33;1.00;;;;;;;;;;4986645;28;20512;-75
2023/12/22 14:13:00;;;;;;;0.97;0.87;;;;;;;;;;4975665;28;20416;-74
2023/12/22 14:15:29;;;;;;;0.87;0.77;;;;;;;;;;4975785;28;20891;-75
2023/12/22 14:17:55;;;;;;;1.07;0.90;;;;;;;;;;4975788;28;20451;-75
2023/12/22 14:20:21;;;;;;;1.00;0.70;;;;;;;;;;4981268;28;20770;-75
2023/12/22 14:22:47;;;;;;;0.90;0.80;;;;;;;;;;4994467;28;20518;-75
2023/12/22 14:25:13;;;;;;;0.90;0.80;;;;;;;;;;4996670;28;20571;-75
2023/12/22 14:27:39;;;;;;;1.07;1.00;;;;;;;;;;4994656;28;20458;-75
2023/12/22 14:30:06;;;;;;;0.90;0.80;;;;;;;;;;4994477;28;20411;-75
2023/12/22 14:32:32;;;;;;;1.50;0.80;;;;;;;;;;4984732;28;20415;-75
2023/12/22 14:34:58;;;;;;;1.00;0.90;;;;;;;;;;4975322;28;20415;-75
2023/12/22 14:37:24;;;;;;;1.13;0.90;;;;;;;;;;4975255;28;20923;-75
2023/12/22 14:39:50;;;;;;;0.80;0.70;;;;;;;;;;4974216;28;20420;-74
2023/12/22 14:42:15;;;;;;;1.10;0.87;;;;;;;;;;4974916;28;20420;-75
2023/12/22 14:44:41;;;;;;;0.90;0.80;;;;;;;;;;4985167;28;20811;-76
2023/12/22 14:47:07;;;;;;;1.17;0.80;;;;;;;;;;4993287;28;20981;-75
2023/12/22 14:49:33;;;;;;;0.80;0.70;;;;;;;;;;4994495;28;20417;-75
2023/12/22 14:51:59;;;;;;;0.77;0.70;;;;;;;;;;4993937;28;20784;-75
2023/12/22 14:54:26;;;;;;;0.90;0.70;;;;;;;;;;4994659;28;20481;-75
2023/12/22 14:56:52;;;;;;;2.70;0.90;;;;;;;;;;4985303;28;20419;-75
2023/12/22 14:59:18;;;;;;;0.80;0.70;;;;;;;;;;4974634;28;20431;-75
2023/12/22 15:01:45;;;;;;;3.03;1.20;;;;;;;;;;4973803;28;20790;-75
2023/12/22 15:04:11;;;;;;;1.77;1.30;;;;;;;;;;4973794;28;20828;-75
2023/12/22 15:06:41;;;;;;;1.17;1.07;;;;;;;;;;4975051;28;20420;-76
2023/12/22 15:09:07;;;;;;;1.00;0.90;;;;;;;;;;4987291;28;20465;-75
2023/12/22 15:11:33;;;;;;;4.57;1.07;;;;;;;;;;4993483;28;20407;-75
2023/12/22 15:14:00;;;;;;;1.10;1.00;;;;;;;;;;4993907;28;20558;-75
2023/12/22 15:16:26;;;;;;;1.47;1.00;;;;;;;;;;4993746;28;20419;-75
2023/12/22 15:18:52;;;;;;;2.00;0.90;;;;;;;;;;4993715;28;20457;-75
2023/12/22 15:21:21;;;;;;;0.80;0.70;;;;;;;;;;4977719;28;20814;-75
2023/12/22 15:23:47;;;;;;;1.47;1.20;;;;;;;;;;4974347;28;20793;-76
2023/12/22 15:26:25;;;;;;;1.70;1.10;;;;;;;;;;4974403;28;20435;-75
2023/12/22 15:28:52;;;;;;;1.60;0.93;;;;;;;;;;4974378;28;20907;-75
2023/12/22 15:31:18;;;;;;;1.53;0.93;;;;;;;;;;4974250;28;20419;-75
2023/12/22 15:33:44;;;;;;;1.03;0.90;;;;;;;;;;4989452;28;20422;-75
2023/12/22 15:36:10;;;;;;;1.23;1.07;;;;;;;;;;4993532;28;21002;-75
2023/12/22 15:38:36;;;;;;;1.00;0.90;;;;;;;;;;4993049;28;20973;-76
2023/12/22 15:41:02;;;;;;;0.73;0.70;;;;;;;;;;4993366;28;20415;-76
2023/12/22 15:43:28;;;;;;;0.90;0.80;;;;;;;;;;4992254;28;21001;-75
2023/12/22 15:45:54;;;;;;;1.63;1.23;;;;;;;;;;4976948;28;20458;-75
2023/12/22 15:48:20;;;;;;;0.83;0.83;;;;;;;;;;4972751;28;20522;-75
2023/12/22 15:50:47;;;;;;;1.17;0.90;;;;;;;;;;4973746;28;20450;-75
2023/12/22 15:53:13;;;;;;;1.20;0.90;;;;;;;;;;4975193;28;20770;-75
2023/12/22 15:55:39;;;;;;;2.10;1.00;;;;;;;;;;4972809;28;20420;-75
2023/12/22 15:58:05;;;;;;;1.47;0.97;;;;;;;;;;4989089;28;20457;-75
2023/12/22 16:00:31;;;;;;;1.90;1.00;;;;;;;;;;4993414;28;20895;-75
2023/12/22 16:02:57;;;;;;;1.33;1.07;;;;;;;;;;4993432;28;20407;-75
2023/12/22 16:05:23;;;;;;;1.17;1.07;;;;;;;;;;4993215;28;20478;-75
2023/12/22 16:07:49;;;;;;;1.10;1.00;;;;;;;;;;4992479;28;20458;-75
2023/12/22 16:10:15;;;;;;;1.03;0.80;;;;;;;;;;4973451;28;20416;-76
2023/12/22 16:12:41;;;;;;;0.90;0.83;;;;;;;;;;4973872;28;20887;-75
2023/12/22 16:15:10;;;;;;;0.90;0.80;;;;;;;;;;4973919;28;20426;-75
2023/12/22 16:17:36;;;;;;;0.90;0.80;;;;;;;;;;4973302;28;20463;-75
2023/12/22 16:20:03;;;;;;;0.90;0.80;;;;;;;;;;4975877;28;20423;-75
2023/12/22 16:22:29;;;;;;;1.27;0.90;;;;;;;;;;4991996;28;20419;-75
2023/12/22 16:24:54;;;;;;;0.90;0.87;;;;;;;;;;4992817;28;20473;-75
2023/12/22 16:27:21;;;;;;;2.00;0.90;;;;;;;;;;4993030;28;20427;-75
2023/12/22 16:29:47;;;;;;;2.10;0.80;;;;;;;;;;4992440;28;20419;-75
2023/12/22 16:32:15;;;;;;;1.13;0.80;;;;;;;;;;4973657;28;20462;-74
2023/12/22 16:34:44;;;;;;;1.03;0.83;;;;;;;;;;4973101;28;20557;-75
2023/12/22 16:37:10;;;;;;;0.90;0.80;;;;;;;;;;4973288;28;20442;-75
2023/12/22 16:39:47;;;;;;;2.00;1.00;;;;;;;;;;4972272;28;20420;-75
2023/12/22 16:42:13;;;;;;;0.97;0.90;;;;;;;;;;4973654;28;20498;-75
2023/12/22 16:44:39;;;;;;;0.93;0.70;;;;;;;;;;4992684;28;20454;-75
2023/12/22 16:47:06;;;;;;;0.97;0.90;;;;;;;;;;4992581;28;20431;-75
2023/12/22 16:49:31;;;;;;;1.73;0.77;;;;;;;;;;4991082;28;21000;-75
2023/12/22 16:51:57;;;;;;;1.13;1.10;;;;;;;;;;4992430;28;20419;-75
2023/12/22 16:54:23;;;;;;;1.30;1.20;;;;;;;;;;4989552;28;20438;-75
2023/12/22 16:56:49;;;;;;;1.43;0.90;;;;;;;;;;4971765;28;20498;-75
2023/12/22 16:59:15;;;;;;;1.13;1.03;;;;;;;;;;4973193;28;20411;-75
2023/12/22 17:01:42;;;;;;;1.00;0.90;;;;;;;;;;4972019;28;20490;-75
2023/12/22 17:04:07;;;;;;;1.93;0.83;;;;;;;;;;4971772;28;20812;-75
2023/12/22 17:06:33;;;;;;;1.23;1.20;;;;;;;;;;4979505;28;20418;-75
2023/12/22 17:08:59;;;;;;;1.10;1.00;;;;;;;;;;4991957;28;20834;-75
2023/12/22 17:11:25;;;;;;;1.43;1.33;;;;;;;;;;4992426;28;20414;-75
2023/12/22 17:13:51;;;;;;;1.27;1.17;;;;;;;;;;4992226;28;20419;-75
2023/12/22 17:16:17;;;;;;;1.00;0.90;;;;;;;;;;4990806;28;20426;-76
2023/12/22 17:18:44;;;;;;;3.23;1.30;;;;;;;;;;4990030;28;20450;-75
2023/12/22 17:21:11;;;;;;;1.47;1.10;;;;;;;;;;4992187;28;20461;-75
2023/12/22 17:23:38;;;;;;;1.93;1.30;;;;;;;;;;4990639;28;20473;-76
2023/12/22 17:26:04;;;;;;;1.33;0.90;;;;;;;;;;4995074;28;20441;-75
2023/12/22 17:28:30;;;;;;;3.33;1.07;;;;;;;;;;4995796;28;20454;-75
2023/12/22 17:30:55;;;;;;;1.03;0.83;;;;;;;;;;4983655;28;20857;-76
2023/12/22 17:33:22;;;;;;;1.00;0.90;;;;;;;;;;4976273;28;20899;-75
2023/12/22 17:35:48;;;;;;;0.90;0.80;;;;;;;;;;4976332;28;20415;-75
2023/12/22 17:38:14;;;;;;;1.40;1.20;;;;;;;;;;4976252;28;20436;-75
2023/12/22 17:40:40;;;;;;;1.80;1.10;;;;;;;;;;4976955;28;20505;-75
2023/12/22 17:43:06;;;;;;;1.20;1.10;;;;;;;;;;4977649;28;20764;-76
2023/12/22 17:45:32;;;;;;;2.40;0.87;;;;;;;;;;4976444;28;20431;-76
2023/12/22 17:47:58;;;;;;;1.07;1.00;;;;;;;;;;4976717;28;20485;-75
2023/12/22 17:50:24;;;;;;;1.23;1.13;;;;;;;;;;4976431;28;20558;-76
2023/12/22 17:52:50;;;;;;;4.00;1.20;;;;;;;;;;4990756;28;20794;-76
2023/12/22 17:55:16;;;;;;;0.93;0.83;;;;;;;;;;4995459;28;20893;-75
2023/12/22 17:57:42;;;;;;;2.73;1.00;;;;;;;;;;4995201;28;20442;-75
2023/12/22 18:00:08;;;;;;;1.57;0.87;;;;;;;;;;4995310;28;20808;-75
2023/12/22 18:02:34;;;;;;;1.67;1.10;;;;;;;;;;4996118;28;20411;-76
2023/12/22 18:05:00;;;;;;;2.40;1.20;;;;;;;;;;4991440;28;20475;-75
2023/12/22 18:07:26;;;;;;;1.10;1.00;;;;;;;;;;4980553;28;20475;-75
2023/12/22 18:09:52;;;;;;;1.60;1.03;;;;;;;;;;4979539;28;20428;-75
2023/12/22 18:12:18;;;;;;;1.00;0.97;;;;;;;;;;4980766;28;20430;-75
2023/12/22 18:14:44;;;;;;;1.53;1.33;;;;;;;;;;4982038;28;20514;-75
2023/12/22 18:17:10;;;;;;;2.30;1.00;;;;;;;;;;5006035;23;20466;-79
2023/12/22 18:19:36;;;;;;;1.17;1.07;;;;;;;;;;4975271;28;20428;-78
2023/12/22 18:22:02;;;;;;;1.43;0.87;;;;;;;;;;4975376;28;20404;-77
2023/12/22 18:24:28;;;;;;;2.70;1.13;;;;;;;;;;4975703;28;20970;-78
2023/12/22 18:26:54;;;;;;;1.33;0.90;;;;;;;;;;4974333;28;20439;-78
2023/12/22 18:29:20;;;;;;;1.00;0.90;;;;;;;;;;4974423;28;20949;-75
2023/12/22 18:31:46;;;;;;;1.30;1.20;;;;;;;;;;4974225;28;20416;-76
2023/12/22 18:34:12;;;;;;;3.93;1.20;;;;;;;;;;4975258;28;20412;-76
2023/12/22 18:36:38;;;;;;;1.23;1.00;;;;;;;;;;4974157;28;20411;-75
2023/12/22 18:39:04;;;;;;;2.80;1.10;;;;;;;;;;4975414;28;20454;-76
2023/12/22 18:41:30;;;;;;;1.80;1.40;;;;;;;;;;4964432;28;20896;-77
2023/12/22 18:43:56;;;;;;;3.13;1.47;;;;;;;;;;4959665;28;20888;-76
2023/12/22 18:46:22;;;;;;;2.30;1.70;;;;;;;;;;4957675;28;20900;-76
2023/12/22 18:48:51;;;;;;;1.10;1.00;;;;;;;;;;4958152;28;20925;-77
2023/12/22 18:51:18;;;;;;;2.07;1.00;;;;;;;;;;4958351;28;20549;-77
2023/12/22 18:53:44;;;;;;;1.47;0.90;;;;;;;;;;4974766;28;20424;-77
2023/12/22 18:56:10;;;;;;;2.67;1.50;;;;;;;;;;4976823;28;20567;-77
2023/12/22 18:58:39;;;;;;;1.60;1.03;;;;;;;;;;4972736;28;20550;-80
2023/12/22 19:01:04;;;;;;;2.70;1.17;;;;;;;;;;4969175;28;20435;-75
2023/12/22 19:03:30;;;;;;;1.23;1.20;;;;;;;;;;4984679;28;20467;-77
2023/12/22 19:05:56;;;;;;;1.17;1.07;;;;;;;;;;4985691;28;20430;-77
2023/12/22 19:08:22;;;;;;;1.20;1.10;;;;;;;;;;4986003;28;20469;-77
2023/12/22 19:10:48;;;;;;;1.17;0.80;;;;;;;;;;4982332;28;20421;-77
2023/12/22 19:13:14;;;;;;;2.83;1.20;;;;;;;;;;4974177;28;20434;-77
2023/12/22 19:15:40;;;;;;;2.37;1.17;;;;;;;;;;4989208;28;21607;-78
2023/12/22 19:18:06;;;;;;;1.60;1.03;;;;;;;;;;4991474;28;20464;-78
2023/12/22 19:20:32;;;;;;;1.90;1.07;;;;;;;;;;4988586;28;20420;-78
2023/12/22 19:22:58;;;;;;;1.03;0.97;;;;;;;;;;4989334;28;20423;-77
2023/12/22 19:25:24;;;;;;;1.03;1.00;;;;;;;;;;4989039;28;20452;-77
2023/12/22 19:27:50;;;;;;;1.20;1.10;;;;;;;;;;4985987;28;20511;-77
2023/12/22 19:30:16;;;;;;;1.27;1.20;;;;;;;;;;4986878;28;20819;-77
2023/12/22 19:32:44;;;;;;;1.30;1.20;;;;;;;;;;4972717;28;20416;-76
2023/12/22 19:35:10;;;;;;;1.10;1.00;;;;;;;;;;4976990;28;20435;-76
2023/12/22 19:37:36;;;;;;;2.47;1.13;;;;;;;;;;4974308;28;20455;-77
2023/12/22 19:40:05;;;;;;;2.03;1.20;;;;;;;;;;4974430;28;20931;-76
2023/12/22 19:42:32;;;;;;;1.30;1.20;;;;;;;;;;4973966;28;20424;-76
2023/12/22 19:44:58;;;;;;;1.40;1.20;;;;;;;;;;4973773;28;20474;-75
2023/12/22 19:47:24;;;;;;;2.00;1.37;;;;;;;;;;4973378;28;20440;-75
2023/12/22 19:49:50;;;;;;;2.70;1.20;;;;;;;;;;4973348;28;20460;-75
2023/12/22 19:52:16;;;;;;;1.37;1.20;;;;;;;;;;4973440;28;20471;-75
2023/12/22 19:54:42;;;;;;;3.13;1.30;;;;;;;;;;4975282;28;20486;-77
2023/12/22 19:57:07;;;;;;;1.63;1.40;;;;;;;;;;4976605;28;20499;-77
2023/12/22 19:59:35;;;;;;;1.37;1.10;;;;;;;;;;4974804;28;20427;-77
2023/12/22 20:02:02;;;;;;;2.20;1.47;;;;;;;;;;4970706;28;20508;-77
2023/12/22 20:04:28;;;;;;;2.20;1.57;;;;;;;;;;4973460;28;20464;-75
2023/12/22 20:06:54;;;;;;;2.23;1.30;;;;;;;;;;4972462;28;20447;-76
2023/12/22 20:09:20;;;;;;;3.17;1.10;;;;;;;;;;4973798;28;20949;-76
2023/12/22 20:11:46;;;;;;;5.20;1.30;;;;;;;;;;4953233;28;20458;-76
2023/12/22 20:14:11;;;;;;;1.37;1.20;;;;;;;;;;4967907;28;21030;-77
2023/12/22 20:16:37;;;;;;;2.80;1.23;;;;;;;;;;4973405;28;20428;-76
2023/12/22 20:19:03;;;;;;;3.60;1.60;;;;;;;;;;4973562;28;20474;-76
2023/12/22 20:21:29;;;;;;;2.73;1.40;;;;;;;;;;4963225;28;20896;-76
2023/12/22 20:23:55;;;;;;;3.03;1.10;;;;;;;;;;4957337;28;20467;-79
2023/12/22 20:26:21;;;;;;;3.13;1.10;;;;;;;;;;4974687;28;20454;-80
2023/12/22 20:28:47;;;;;;;1.90;1.20;;;;;;;;;;4977497;28;20439;-79
2023/12/22 20:31:13;;;;;;;4.03;1.43;;;;;;;;;;4982103;28;20428;-79
2023/12/22 20:33:39;;;;;;;2.33;1.30;;;;;;;;;;4979259;28;20428;-80
2023/12/22 20:36:06;;;;;;;3.93;1.13;;;;;;;;;;4972090;28;20420;-79
2023/12/22 20:38:32;;;;;;;4.50;1.70;;;;;;;;;;4965533;28;20463;-78